METAR Data

Data at: 0020 UTC 23 Mar 2019

METAR for:KJFK (New York/Kennedy Int, NY, US)
Text:KJFK 222351Z 28015G26KT 10SM FEW040 SCT070 08/M01 A2947 RMK AO2 PK WND 29034/2317 SLP978 60000 T00781011 10106 20078 53028
Temperature: 7.8°C ( 46°F)
Dewpoint: -1.1°C ( 30°F) [RH = 53%]
Pressure (altimeter):29.47 inches Hg ( 998.1 mb) [Sea level pressure: 997.8 mb]
Winds:from the W (280 degrees) at 17 MPH (15 knots; 7.7 m/s) gusting to 30 MPH (26 knots; 13.4 m/s)
Visibility:10 or more sm (16+ km)
Ceiling:at least 12,000 feet AGL
Clouds: few clouds at 4000 feet AGL, scattered clouds at 7000 feet AGL